Whiting, IN (46394)

3:56 AM CDT on May 29, 2017 (GMT -0500)
East Side of Chicago | | Change Station
Active Advisory: Flood Warning

Elev 600 ft 41.69 °N, 87.53 °W | Updated 31 seconds ago

Partly Cloudy
Partly Cloudy
62.4 °F
Feels Like 62.4 °F
N
0.0
Wind Variable Wind from SSW
Gusts 0.0 mph

Today
High -- | Low -- °F
--% Chance of Precip.
Yesterday
High -- | Low -- °F
Precip. -- in
Pressure 29.79 in
Visibility 10.0 miles
Clouds Scattered Clouds 11000 ft
Dew Point 52 °F
Humidity 69%
Rainfall 0.00 in
Snow Depth Not available.
5:19 AM 8:15 PM
Waxing Crescent, 18% visible
METAR KGYY 290835Z AUTO 22004KT 10SM SCT110 17/10 A2979 RMK AO2 T01740099
Pressure 29.79 in
Visibility 10.0 miles
Clouds Scattered Clouds 11000 ft
Dew Point 52 °F
Humidity 69%
Rainfall 0.00 in
Snow Depth Not available.
5:19 AM 8:15 PM
Waxing Crescent, 18% visible
METAR KGYY 290835Z AUTO 22004KT 10SM SCT110 17/10 A2979 RMK AO2 T01740099

Get Your Daily Forecast Email!

Thanks for signing up!

Be on the lookout for a verification email in your inbox.

You'll start receiving severe weather alerts in your inbox..

×

10-Day Weather Forecast

Almanac

Astronomy

May. 29, 2017 Rise Set
Actual Time
Civil Twilight
Nautical Twilight
Astronomical Twilight
Moon
Length of Visible Light
Length of Day
Tomorrow will be .
, % of the Moon is Illuminated

Today's Extremes

State Highs State Lows

Community

WunderPhotos

Category 6

Welcome to Category 6. This is the collective home for Weather Underground's featured writeups by Dr. Jeff Masters (right), Bob Henson (left), Chris Burt, and other regular contributors.

Nearby

Air Quality

  Air Quality AQ Index Pollutant
Not available.

Snow Depth

Station Depth Elevation

Earthquake Activity

City Distance Mag. Time & Date
Minimum magnitude displayed is 2.5.

Coastal Water Temperatures

Place Temperature

Stations

Nearby Weather Stations

Station Location Temp. Windchill Dew Point Humidity Wind Precip. Elev Updated Type
                   

Watches & Warnings

Flood Warning
Issued: 7:46 PM CDT May. 28, 2017 – National Weather Service

The Flood Warning continues for
the Kankakee River at Shelby.
* Until Thursday morning.
* At 645 PM Sunday the stage was 9.1 feet.
* Flood stage is 9.0 feet.
* Minor flooding is occurring and minor flooding is forecast.
* Forecast... the river will continue to very gradually fall to below
flood stage by Thursday morning.
* Impact... at 9.0 feet... lowland agricultural flooding begins.


Lat... Lon 4118 8722 4111 8753 4121 8756 4127 8727